createdAt,value
2023-01-08T00:02:02.563Z,8.30
2023-01-08T00:04:42.831Z,8.31
2023-01-08T00:07:12.227Z,8.31
2023-01-08T00:09:51.301Z,8.32
2023-01-08T00:12:22.281Z,8.33
2023-01-08T00:14:55.676Z,8.34
2023-01-08T00:20:07.200Z,8.36
2023-01-08T00:22:34.608Z,8.38
2023-01-08T00:25:07.512Z,8.41
2023-01-08T00:27:35.002Z,8.42
2023-01-08T00:30:07.177Z,8.42
2023-01-08T00:32:41.576Z,8.43
2023-01-08T00:35:20.396Z,8.43
2023-01-08T00:38:00.879Z,8.42
2023-01-08T00:41:01.482Z,8.44
2023-01-08T00:43:53.872Z,8.45
2023-01-08T00:46:23.228Z,8.47
2023-01-08T01:10:30.910Z,8.50
2023-01-08T01:16:38.981Z,8.51
2023-01-08T01:34:52.114Z,8.37
2023-01-08T01:37:37.110Z,8.37
2023-01-08T01:40:06.467Z,8.35
2023-01-08T01:42:42.247Z,8.33
2023-01-08T01:45:37.943Z,8.32
2023-01-08T01:51:43.663Z,8.31
2023-01-08T01:54:16.075Z,8.31
2023-01-08T01:56:46.669Z,8.32
2023-01-08T02:05:09.532Z,8.36
2023-01-08T02:08:08.327Z,8.37
2023-01-08T02:15:13.200Z,8.37
2023-01-08T02:18:08.153Z,8.38
2023-01-08T02:32:43.540Z,8.30
2023-01-08T02:35:42.263Z,8.29
2023-01-08T02:38:16.111Z,8.26
2023-01-08T02:41:21.115Z,8.23
2023-01-08T02:54:29.505Z,8.06
2023-01-08T02:57:19.054Z,8.03
2023-01-08T02:59:56.703Z,7.98
2023-01-08T03:05:49.683Z,7.93
2023-01-08T03:08:39.317Z,7.90
2023-01-08T03:11:23.501Z,7.88
2023-01-08T03:17:15.577Z,7.82
2023-01-08T03:22:45.570Z,7.76
2023-01-08T03:25:44.030Z,7.75
2023-01-08T03:48:10.873Z,7.54
2023-01-08T03:53:26.293Z,7.54
2023-01-08T03:58:48.167Z,7.52
2023-01-08T04:01:18.131Z,7.50
2023-01-08T04:07:16.855Z,7.47
2023-01-08T04:09:47.209Z,7.47
2023-01-08T04:18:39.930Z,7.44
2023-01-08T04:21:21.594Z,7.42
2023-01-08T04:23:50.752Z,7.39
2023-01-08T04:29:36.835Z,7.32
2023-01-08T04:32:08.546Z,7.30
2023-01-08T04:35:10.072Z,7.26
2023-01-08T04:38:06.349Z,7.22
2023-01-08T04:43:58.709Z,7.19
2023-01-08T04:53:03.612Z,7.16
2023-01-08T04:55:41.463Z,7.15
2023-01-08T05:01:00.440Z,7.17
2023-01-08T05:03:33.659Z,7.19
2023-01-08T05:06:08.904Z,7.22
2023-01-08T05:08:39.046Z,7.25
2023-01-08T05:11:24.989Z,7.28
2023-01-08T05:13:56.742Z,7.30
2023-01-08T05:16:26.542Z,7.33
2023-01-08T05:18:56.773Z,7.36
2023-01-08T05:24:19.947Z,7.42
2023-01-08T05:26:56.957Z,7.46
2023-01-08T05:29:34.756Z,7.48
2023-01-08T05:32:07.502Z,7.52
2023-01-08T05:34:36.362Z,7.53
2023-01-08T05:39:47.184Z,7.54
2023-01-08T05:42:41.029Z,7.55
2023-01-08T05:45:11.463Z,7.55
2023-01-08T05:47:45.219Z,7.57
2023-01-08T05:50:22.408Z,7.56
2023-01-08T05:52:50.217Z,7.56
2023-01-08T05:55:24.062Z,7.56
2023-01-08T05:58:00.839Z,7.55
2023-01-08T06:00:35.841Z,7.54
2023-01-08T06:03:14.700Z,7.54
2023-01-08T06:05:46.530Z,7.54
2023-01-08T06:27:19.111Z,7.53
2023-01-08T06:29:57.129Z,7.53
2023-01-08T06:42:26.358Z,7.46
2023-01-08T06:44:54.459Z,7.43
2023-01-08T07:02:50.085Z,7.51
2023-01-08T07:05:24.676Z,7.52
2023-01-08T07:07:58.042Z,7.53
2023-01-08T07:13:19.355Z,7.54
2023-01-08T07:18:33.453Z,7.53
2023-01-08T07:21:09.976Z,7.50
2023-01-08T07:23:46.826Z,7.48
2023-01-08T07:26:27.409Z,7.47
2023-01-08T07:28:59.978Z,7.45
2023-01-08T07:31:33.525Z,7.42
2023-01-08T07:37:17.548Z,7.37
2023-01-08T07:43:07.572Z,7.30
2023-01-08T07:48:30.247Z,7.26
2023-01-08T07:51:23.152Z,7.24
2023-01-08T07:54:10.463Z,7.20
2023-01-08T07:56:40.959Z,7.16
2023-01-08T07:59:08.679Z,7.13
2023-01-08T08:01:37.459Z,7.09
2023-01-08T08:04:07.148Z,7.07
2023-01-08T08:12:15.180Z,7.01
2023-01-08T08:14:43.860Z,7.03
2023-01-08T08:17:18.999Z,7.05
2023-01-08T08:19:49.430Z,7.05
2023-01-08T08:22:25.740Z,7.07
2023-01-08T08:24:56.323Z,7.09
2023-01-08T08:27:25.692Z,7.11
2023-01-08T08:29:54.406Z,7.10
2023-01-08T08:32:22.453Z,7.11
2023-01-08T08:34:52.539Z,7.09
2023-01-08T08:37:21.437Z,7.09
2023-01-08T08:39:51.152Z,7.09
2023-01-08T08:42:18.580Z,7.08
2023-01-08T08:44:49.730Z,7.07
2023-01-08T08:47:20.140Z,7.06
2023-01-08T08:49:56.373Z,7.05
2023-01-08T08:52:23.778Z,7.03
2023-01-08T08:54:55.304Z,7.01
2023-01-08T08:57:27.504Z,7.00
2023-01-08T08:59:56.188Z,6.99
2023-01-08T09:02:25.964Z,7.00
2023-01-08T09:04:57.644Z,7.00
2023-01-08T09:07:32.747Z,7.00
2023-01-08T09:10:01.605Z,7.01
2023-01-08T09:12:29.957Z,7.02
2023-01-08T09:14:58.740Z,7.03
2023-01-08T09:17:26.184Z,7.05
2023-01-08T09:19:53.528Z,7.06
2023-01-08T09:22:21.137Z,7.09
2023-01-08T09:24:49.737Z,7.11
2023-01-08T09:27:18.537Z,7.15
2023-01-08T09:29:46.005Z,7.18
2023-01-08T09:32:14.369Z,7.22
2023-01-08T09:34:46.154Z,7.23
2023-01-08T09:37:16.859Z,7.27
2023-01-08T09:39:51.041Z,7.30
2023-01-08T09:42:29.843Z,7.33
2023-01-08T09:45:00.507Z,7.36
2023-01-08T09:47:39.250Z,7.38
2023-01-08T09:50:14.106Z,7.42
2023-01-08T09:52:47.158Z,7.47
2023-01-08T09:55:16.579Z,7.50
2023-01-08T09:57:48.013Z,7.54
2023-01-08T10:00:19.870Z,7.56
2023-01-08T10:02:55.190Z,7.60
2023-01-08T10:05:22.981Z,7.63
2023-01-08T10:07:56.193Z,7.65
2023-01-08T10:10:30.589Z,7.69
2023-01-08T10:12:59.703Z,7.71
2023-01-08T10:15:27.292Z,7.73
2023-01-08T10:18:07.621Z,7.75
2023-01-08T10:20:36.047Z,7.77
2023-01-08T10:23:19.334Z,7.79
2023-01-08T10:26:00.534Z,7.81
2023-01-08T10:28:35.947Z,7.84
2023-01-08T10:31:11.115Z,7.88
2023-01-08T10:33:42.711Z,7.91
2023-01-08T10:36:14.442Z,7.95
2023-01-08T10:39:05.589Z,7.98
2023-01-08T10:41:40.428Z,7.99
2023-01-08T10:44:16.603Z,8.02
2023-01-08T10:46:50.552Z,8.07
2023-01-08T10:49:51.529Z,8.07
2023-01-08T10:52:36.857Z,8.05
2023-01-08T10:55:29.383Z,8.03
2023-01-08T10:58:03.914Z,8.02
2023-01-08T11:00:34.579Z,8.06
2023-01-08T11:03:05.954Z,8.14
2023-01-08T11:05:39.349Z,8.19
2023-01-08T11:08:13.900Z,8.23
2023-01-08T11:10:41.676Z,8.27
2023-01-08T11:13:17.971Z,8.26
2023-01-08T11:15:48.567Z,8.27
2023-01-08T11:18:24.829Z,8.27
2023-01-08T11:20:54.833Z,8.31
2023-01-08T11:23:33.347Z,8.31
2023-01-08T11:26:14.811Z,8.34
2023-01-08T11:29:04.325Z,8.35
2023-01-08T11:31:51.085Z,8.38
2023-01-08T11:34:28.651Z,8.40
2023-01-08T11:37:12.288Z,8.44
2023-01-08T11:39:40.243Z,8.49
2023-01-08T11:42:18.276Z,8.53
2023-01-08T11:45:12.921Z,8.55
2023-01-08T11:48:07.015Z,8.56
2023-01-08T11:51:05.462Z,8.60
2023-01-08T11:53:47.957Z,8.64
2023-01-08T11:56:53.376Z,8.70
2023-01-08T12:00:14.198Z,8.74
2023-01-08T12:03:26.672Z,8.71
2023-01-08T12:06:17.709Z,8.70
2023-01-08T12:09:10.564Z,8.69
2023-01-08T12:12:03.902Z,8.68
2023-01-08T12:14:46.473Z,8.70
2023-01-08T12:17:43.756Z,8.71
2023-01-08T12:20:37.148Z,8.73
2023-01-08T12:23:05.409Z,8.71
2023-01-08T12:25:51.061Z,8.69
2023-01-08T12:28:28.537Z,8.68
2023-01-08T12:31:20.231Z,8.66
2023-01-08T12:34:05.732Z,8.62
2023-01-08T12:37:13.549Z,8.61
2023-01-08T12:39:53.010Z,8.59
2023-01-08T12:42:24.608Z,8.63
2023-01-08T12:44:55.759Z,8.67
2023-01-08T12:47:28.515Z,8.68
2023-01-08T12:50:03.464Z,8.65
2023-01-08T12:52:42.294Z,8.65
2023-01-08T12:55:44.736Z,8.64
2023-01-08T12:58:40.645Z,8.68
2023-01-08T13:01:25.983Z,8.66
2023-01-08T13:03:54.980Z,8.63
2023-01-08T13:06:22.917Z,8.57
2023-01-08T13:08:56.834Z,8.55
2023-01-08T13:11:29.276Z,8.54
2023-01-08T13:14:06.523Z,8.49
2023-01-08T13:16:45.346Z,8.46
2023-01-08T13:19:41.532Z,8.43
2023-01-08T13:22:24.392Z,8.42
2023-01-08T13:24:52.252Z,8.42
2023-01-08T13:27:19.730Z,8.42
2023-01-08T13:29:49.199Z,8.39
2023-01-08T13:32:27.546Z,8.37
2023-01-08T13:35:12.948Z,8.34
2023-01-08T13:37:40.770Z,8.29
2023-01-08T13:40:36.408Z,8.25
2023-01-08T13:43:11.674Z,8.22
2023-01-08T13:45:39.516Z,8.22
2023-01-08T13:48:07.023Z,8.22
2023-01-08T13:50:37.506Z,8.17
2023-01-08T13:53:05.195Z,8.16
2023-01-08T13:55:38.066Z,8.13
2023-01-08T13:58:13.664Z,8.11
2023-01-08T14:00:40.937Z,8.09
2023-01-08T14:03:35.193Z,8.08
2023-01-08T14:06:23.111Z,8.04
2023-01-08T14:08:51.743Z,8.02
2023-01-08T14:11:20.762Z,7.99
2023-01-08T14:13:48.641Z,8.00
2023-01-08T14:16:17.311Z,8.00
2023-01-08T14:18:46.226Z,8.00
2023-01-08T14:21:15.189Z,7.98
2023-01-08T14:23:47.039Z,7.98
2023-01-08T14:26:36.271Z,7.98
2023-01-08T14:29:12.248Z,8.01
2023-01-08T14:31:46.151Z,8.03
2023-01-08T14:34:14.605Z,8.04
2023-01-08T14:36:43.086Z,8.05
2023-01-08T14:39:22.916Z,8.06
2023-01-08T14:42:11.279Z,8.08
2023-01-08T14:44:42.346Z,8.11
2023-01-08T14:47:18.941Z,8.11
2023-01-08T14:49:52.788Z,8.12
2023-01-08T14:52:21.301Z,8.14
2023-01-08T14:54:53.138Z,8.14
2023-01-08T14:57:22.921Z,8.16
2023-01-08T14:59:57.597Z,8.15
2023-01-08T15:02:32.724Z,8.14
2023-01-08T15:05:20.671Z,8.10
2023-01-08T15:08:00.038Z,8.08
2023-01-08T15:10:39.665Z,8.02
2023-01-08T15:13:11.727Z,7.95
2023-01-08T15:15:57.289Z,7.90
2023-01-08T15:18:25.422Z,7.86
2023-01-08T15:20:54.239Z,7.81
2023-01-08T15:23:37.976Z,7.74
2023-01-08T15:26:10.195Z,7.69
2023-01-08T15:28:38.152Z,7.65
2023-01-08T15:31:05.862Z,7.59
2023-01-08T15:33:33.167Z,7.56
2023-01-08T15:36:00.813Z,7.50
2023-01-08T15:38:28.440Z,7.45
2023-01-08T15:40:55.794Z,7.41
2023-01-08T15:43:24.047Z,7.36
2023-01-08T15:45:51.969Z,7.31
2023-01-08T15:48:19.392Z,7.23
2023-01-08T15:50:46.715Z,7.16
2023-01-08T15:53:22.241Z,7.11
2023-01-08T15:55:51.786Z,7.05
2023-01-08T15:58:19.173Z,7.01
2023-01-08T16:00:48.057Z,6.98
2023-01-08T16:03:16.014Z,6.94
2023-01-08T16:05:43.319Z,6.91
2023-01-08T16:08:11.901Z,6.87
2023-01-08T16:10:39.288Z,6.87
2023-01-08T16:13:06.670Z,6.85
2023-01-08T16:15:33.978Z,6.84
2023-01-08T16:18:01.429Z,6.82
2023-01-08T16:20:28.723Z,6.80
2023-01-08T16:22:57.196Z,6.80
2023-01-08T16:25:24.932Z,6.78
2023-01-08T16:27:52.701Z,6.77
2023-01-08T16:30:20.061Z,6.75
2023-01-08T16:32:51.655Z,6.72
2023-01-08T16:35:20.840Z,6.69
2023-01-08T16:37:48.888Z,6.68
2023-01-08T16:40:16.794Z,6.66
2023-01-08T16:42:44.384Z,6.65
2023-01-08T16:45:11.734Z,6.64
2023-01-08T16:47:39.439Z,6.61
2023-01-08T16:50:08.065Z,6.55
2023-01-08T16:52:37.660Z,6.52
2023-01-08T16:55:06.685Z,6.48
2023-01-08T16:57:34.041Z,6.43
2023-01-08T17:00:01.630Z,6.39
2023-01-08T17:02:29.085Z,6.35
2023-01-08T17:04:56.409Z,6.32
2023-01-08T17:07:24.121Z,6.29
2023-01-08T17:09:51.411Z,6.27
2023-01-08T17:12:22.840Z,6.24
2023-01-08T17:14:51.734Z,6.21
2023-01-08T17:17:19.416Z,6.19
2023-01-08T17:19:46.873Z,6.16
2023-01-08T17:22:14.167Z,6.14
2023-01-08T17:24:41.589Z,6.12
2023-01-08T17:27:08.882Z,6.09
2023-01-08T17:29:36.389Z,6.10
2023-01-08T17:32:03.919Z,6.05
2023-01-08T17:34:31.295Z,6.05
2023-01-08T17:36:58.869Z,6.04
2023-01-08T17:39:27.753Z,6.00
2023-01-08T17:42:13.533Z,6.00
2023-01-08T17:44:40.867Z,5.98
2023-01-08T17:47:08.345Z,5.96
2023-01-08T17:49:35.733Z,5.94
2023-01-08T17:52:03.053Z,5.92
2023-01-08T17:54:31.585Z,5.91
2023-01-08T17:56:59.077Z,5.93
2023-01-08T17:59:26.484Z,5.98
2023-01-08T18:01:54.020Z,5.99
2023-01-08T18:04:22.511Z,6.00
2023-01-08T18:06:49.784Z,6.03
2023-01-08T18:09:18.812Z,6.03
2023-01-08T18:11:46.365Z,6.05
2023-01-08T18:14:14.499Z,6.06
2023-01-08T18:16:45.715Z,6.05
2023-01-08T18:19:15.961Z,6.07
2023-01-08T18:21:44.354Z,6.08
2023-01-08T18:24:12.275Z,6.08
2023-01-08T18:26:40.546Z,6.07
2023-01-08T18:29:08.434Z,6.06
2023-01-08T18:31:35.780Z,6.05
2023-01-08T18:34:03.941Z,6.05
2023-01-08T18:36:31.499Z,6.01
2023-01-08T18:38:58.815Z,5.97
2023-01-08T18:41:44.574Z,5.93
2023-01-08T18:44:12.028Z,5.86
2023-01-08T18:46:39.347Z,5.81
2023-01-08T18:49:07.571Z,5.78
2023-01-08T18:51:37.997Z,5.75
2023-01-08T18:54:07.632Z,5.71
2023-01-08T18:56:36.265Z,5.68
2023-01-08T18:59:05.218Z,5.64
2023-01-08T19:01:35.270Z,5.62
2023-01-08T19:04:06.898Z,5.59
2023-01-08T19:06:35.151Z,5.56
2023-01-08T19:09:02.923Z,5.52
2023-01-08T19:11:30.237Z,5.48
2023-01-08T19:13:58.044Z,5.43
2023-01-08T19:16:26.020Z,5.40
2023-01-08T19:18:53.935Z,5.38
2023-01-08T19:21:22.195Z,5.34
2023-01-08T19:23:49.582Z,5.32
2023-01-08T19:26:17.413Z,5.30
2023-01-08T19:28:44.763Z,5.27
2023-01-08T19:31:14.979Z,5.24
2023-01-08T19:33:42.705Z,5.23
2023-01-08T19:36:12.755Z,5.20
2023-01-08T19:38:40.893Z,5.16
2023-01-08T19:41:28.996Z,5.14
2023-01-08T19:43:57.410Z,5.13
2023-01-08T19:46:25.465Z,5.11
2023-01-08T19:48:53.033Z,5.13
2023-01-08T19:51:20.354Z,5.11
2023-01-08T19:53:47.737Z,5.10
2023-01-08T19:56:15.407Z,5.10
2023-01-08T19:58:42.965Z,5.10
2023-01-08T20:01:16.130Z,5.11
2023-01-08T20:03:44.093Z,5.09
2023-01-08T20:06:16.320Z,5.09
2023-01-08T20:08:46.161Z,5.08
2023-01-08T20:11:15.692Z,5.06
2023-01-08T20:13:44.147Z,5.06
2023-01-08T20:16:14.552Z,5.05
2023-01-08T20:18:42.753Z,5.04
2023-01-08T20:21:16.253Z,5.04
2023-01-08T20:23:45.131Z,5.03
2023-01-08T20:26:15.437Z,5.02
2023-01-08T20:28:44.931Z,5.00
2023-01-08T20:31:17.903Z,4.98
2023-01-08T20:33:45.844Z,4.97
2023-01-08T20:36:19.112Z,4.99
2023-01-08T20:38:47.045Z,4.98
2023-01-08T20:41:14.456Z,4.97
2023-01-08T20:43:42.060Z,4.97
2023-01-08T20:46:11.800Z,4.97
2023-01-08T20:48:47.088Z,4.96
2023-01-08T20:51:16.356Z,4.96
2023-01-08T20:53:43.780Z,4.95
2023-01-08T20:56:15.444Z,4.95
2023-01-08T20:58:45.554Z,4.95
2023-01-08T21:01:19.603Z,4.95
2023-01-08T21:03:48.689Z,4.95
2023-01-08T21:06:19.340Z,4.94
2023-01-08T21:08:49.431Z,4.93
2023-01-08T21:11:18.252Z,4.91
2023-01-08T21:13:46.155Z,4.91
2023-01-08T21:16:22.630Z,4.90
2023-01-08T21:18:51.143Z,4.89
2023-01-08T21:21:29.818Z,4.91
2023-01-08T21:23:57.544Z,4.90
2023-01-08T21:26:25.916Z,4.90
2023-01-08T21:28:53.336Z,4.91
2023-01-08T21:31:24.711Z,4.89
2023-01-08T21:33:53.202Z,4.89
2023-01-08T21:36:22.862Z,4.89
2023-01-08T21:38:50.747Z,4.89
2023-01-08T21:41:42.349Z,4.88
2023-01-08T21:44:36.924Z,4.87
2023-01-08T21:47:07.351Z,4.87
2023-01-08T21:49:38.806Z,4.88
2023-01-08T21:52:25.359Z,4.88
2023-01-08T21:54:54.024Z,4.89
2023-01-08T21:57:22.279Z,4.89
2023-01-08T21:59:51.090Z,4.91
2023-01-08T22:02:20.118Z,4.94
2023-01-08T22:04:47.670Z,4.96
2023-01-08T22:07:15.754Z,4.98
2023-01-08T22:09:43.147Z,5.01
2023-01-08T22:12:10.874Z,5.02
2023-01-08T22:14:38.717Z,5.06
2023-01-08T22:17:08.534Z,5.09
2023-01-08T22:19:40.171Z,5.15
2023-01-08T22:22:10.457Z,5.18
2023-01-08T22:24:38.528Z,5.20
2023-01-08T22:27:06.266Z,5.25
2023-01-08T22:29:33.945Z,5.27
2023-01-08T22:32:01.202Z,5.32
2023-01-08T22:34:32.887Z,5.36
2023-01-08T22:37:00.311Z,5.37
2023-01-08T22:39:27.698Z,5.41
2023-01-08T22:41:55.120Z,5.43
2023-01-08T22:44:22.671Z,5.45
2023-01-08T22:46:49.991Z,5.47
2023-01-08T22:49:17.355Z,5.46
2023-01-08T22:51:44.844Z,5.46
2023-01-08T22:54:13.311Z,5.46
2023-01-08T22:56:40.815Z,5.45
2023-01-08T22:59:08.607Z,5.43
2023-01-08T23:01:36.421Z,5.43
2023-01-08T23:04:04.343Z,5.46
2023-01-08T23:06:32.317Z,5.46
2023-01-08T23:09:00.473Z,5.46
2023-01-08T23:11:28.346Z,5.49
2023-01-08T23:13:56.231Z,5.49
2023-01-08T23:16:25.498Z,5.49
2023-01-08T23:18:54.451Z,5.51
2023-01-08T23:21:23.821Z,5.54
2023-01-08T23:23:51.776Z,5.56
2023-01-08T23:26:25.428Z,5.58
2023-01-08T23:28:53.755Z,5.60
2023-01-08T23:31:24.588Z,5.61
2023-01-08T23:33:53.038Z,5.59
2023-01-08T23:36:21.636Z,5.58
2023-01-08T23:38:51.629Z,5.58
2023-01-08T23:41:21.249Z,5.57
2023-01-08T23:43:49.317Z,5.55
2023-01-08T23:46:17.707Z,5.53
2023-01-08T23:48:45.065Z,5.53
2023-01-08T23:51:12.664Z,5.52
2023-01-08T23:53:40.179Z,5.51
2023-01-08T23:56:07.779Z,5.52
2023-01-08T23:58:35.484Z,5.53
